createdAt,value
2018-05-01T00:01:41.039Z,16.60
2018-05-01T00:04:07.884Z,16.60
2018-05-01T00:06:34.725Z,16.60
2018-05-01T00:09:01.672Z,16.60
2018-05-01T00:11:28.622Z,16.60
2018-05-01T00:13:55.782Z,16.50
2018-05-01T00:16:22.722Z,16.50
2018-05-01T00:18:49.570Z,16.60
2018-05-01T00:21:16.306Z,16.50
2018-05-01T00:23:43.263Z,16.50
2018-05-01T00:26:10.312Z,16.50
2018-05-01T00:28:37.377Z,16.50
2018-05-01T00:31:04.303Z,16.50
2018-05-01T00:33:31.256Z,16.50
2018-05-01T00:35:58.301Z,16.50
2018-05-01T00:38:25.166Z,16.50
2018-05-01T00:40:51.995Z,16.50
2018-05-01T00:43:18.936Z,16.50
2018-05-01T00:45:45.861Z,16.40
2018-05-01T00:48:12.765Z,16.40
2018-05-01T00:50:40.401Z,16.40
2018-05-01T00:53:07.334Z,16.40
2018-05-01T00:55:34.085Z,16.30
2018-05-01T00:58:00.875Z,16.40
2018-05-01T01:00:27.784Z,16.30
2018-05-01T01:02:54.588Z,16.30
2018-05-01T01:05:21.439Z,16.30
2018-05-01T01:07:48.375Z,16.30
2018-05-01T01:10:15.274Z,16.30
2018-05-01T01:12:42.169Z,16.30
2018-05-01T01:15:08.997Z,16.20
2018-05-01T01:17:35.918Z,16.20
2018-05-01T01:20:02.991Z,16.20
2018-05-01T01:22:29.787Z,16.20
2018-05-01T01:24:56.648Z,16.20
2018-05-01T01:27:23.477Z,16.10
2018-05-01T01:29:50.189Z,16.20
2018-05-01T01:32:17.001Z,16.20
2018-05-01T01:34:44.744Z,16.10
2018-05-01T01:37:11.261Z,16.10
2018-05-01T01:39:37.784Z,16.10
2018-05-01T01:42:04.282Z,16.10
2018-05-01T01:44:30.843Z,16.10
2018-05-01T01:46:57.436Z,16.10
2018-05-01T01:49:24.699Z,16.00
2018-05-01T01:51:51.972Z,16.00
2018-05-01T01:54:19.229Z,16.00
2018-05-01T01:56:46.436Z,16.00
2018-05-01T01:59:12.928Z,16.00
2018-05-01T02:01:39.455Z,16.00
2018-05-01T02:04:06.046Z,16.00
2018-05-01T02:06:32.638Z,16.00
2018-05-01T02:08:59.164Z,16.00
2018-05-01T02:11:26.428Z,16.00
2018-05-01T02:13:53.629Z,16.00
2018-05-01T02:16:20.212Z,15.90
2018-05-01T02:18:47.507Z,15.90
2018-05-01T02:21:13.972Z,15.90
2018-05-01T02:23:40.472Z,15.90
2018-05-01T02:26:06.919Z,15.90
2018-05-01T02:28:33.460Z,15.90
2018-05-01T02:30:59.990Z,15.90
2018-05-01T02:33:26.516Z,15.90
2018-05-01T02:35:53.082Z,15.80
2018-05-01T02:38:19.523Z,15.80
2018-05-01T02:40:45.996Z,15.80
2018-05-01T02:43:12.536Z,15.80
2018-05-01T02:45:39.846Z,15.70
2018-05-01T02:48:06.439Z,15.70
2018-05-01T02:50:32.945Z,15.80
2018-05-01T02:53:00.163Z,15.70
2018-05-01T02:55:26.712Z,15.70
2018-05-01T02:57:53.283Z,15.70
2018-05-01T03:00:20.562Z,15.70
2018-05-01T03:02:47.014Z,15.60
2018-05-01T03:05:13.496Z,15.70
2018-05-01T03:07:39.988Z,15.60
2018-05-01T03:12:39.578Z,15.60
2018-05-01T03:15:06.072Z,15.60
2018-05-01T03:17:32.580Z,15.60
2018-05-01T03:19:59.067Z,15.50
2018-05-01T03:22:25.639Z,15.50
2018-05-01T03:24:52.942Z,15.50
2018-05-01T03:27:19.395Z,15.40
2018-05-01T03:29:45.922Z,15.50
2018-05-01T03:32:12.428Z,15.40
2018-05-01T03:34:38.969Z,15.40
2018-05-01T03:37:05.432Z,15.40
2018-05-01T03:39:31.968Z,15.50
2018-05-01T03:41:58.537Z,15.40
2018-05-01T03:44:25.771Z,15.40
2018-05-01T03:46:52.235Z,15.40
2018-05-01T03:49:19.456Z,15.40
2018-05-01T03:51:45.937Z,15.40
2018-05-01T03:54:12.447Z,15.40
2018-05-01T03:56:39.764Z,15.30
2018-05-01T03:59:06.328Z,15.40
2018-05-01T04:01:33.520Z,15.40
2018-05-01T04:03:59.991Z,15.30
2018-05-01T04:06:26.571Z,15.40
2018-05-01T04:08:53.799Z,15.30
2018-05-01T04:11:26.989Z,15.30
2018-05-01T04:13:53.580Z,15.30
2018-05-01T04:16:20.135Z,15.30
2018-05-01T04:18:46.663Z,15.30
2018-05-01T04:21:13.123Z,15.30
2018-05-01T04:23:39.619Z,15.30
2018-05-01T04:26:06.683Z,15.40
2018-05-01T04:28:33.264Z,15.40
2018-05-01T04:30:59.863Z,15.40
2018-05-01T04:33:26.369Z,15.30
2018-05-01T04:35:53.572Z,15.30
2018-05-01T04:38:20.125Z,15.30
2018-05-01T04:40:46.658Z,15.30
2018-05-01T04:43:13.129Z,15.30
2018-05-01T04:45:40.478Z,15.30
2018-05-01T04:48:07.697Z,15.30
2018-05-01T04:50:34.146Z,15.30
2018-05-01T04:53:00.720Z,15.40
2018-05-01T04:55:27.332Z,15.30
2018-05-01T04:57:53.895Z,15.30
2018-05-01T05:00:21.173Z,15.30
2018-05-01T05:02:47.692Z,15.30
2018-05-01T05:05:14.921Z,15.30
2018-05-01T05:07:41.395Z,15.30
2018-05-01T05:10:07.884Z,15.40
2018-05-01T05:12:34.409Z,15.30
2018-05-01T05:15:00.980Z,15.30
2018-05-01T05:17:28.311Z,15.30
2018-05-01T05:19:54.891Z,15.30
2018-05-01T05:22:22.238Z,15.30
2018-05-01T05:24:49.488Z,15.30
2018-05-01T05:27:16.689Z,15.30
2018-05-01T05:29:43.173Z,15.30
2018-05-01T05:32:10.388Z,15.30
2018-05-01T05:34:36.985Z,15.30
2018-05-01T05:37:03.487Z,15.30
2018-05-01T05:39:30.051Z,15.30
2018-05-01T05:41:57.378Z,15.30
2018-05-01T05:44:23.883Z,15.30
2018-05-01T05:46:50.417Z,15.30
2018-05-01T05:49:16.972Z,15.30
2018-05-01T05:51:43.591Z,15.30
2018-05-01T05:54:10.119Z,15.30
2018-05-01T05:56:36.640Z,15.30
2018-05-01T05:59:03.111Z,15.40
2018-05-01T06:01:29.631Z,15.40
2018-05-01T06:03:56.165Z,15.40
2018-05-01T06:06:22.708Z,15.40
2018-05-01T06:08:49.193Z,15.40
2018-05-01T06:11:15.637Z,15.40
2018-05-01T06:13:42.185Z,15.40
2018-05-01T06:16:08.727Z,15.40
2018-05-01T06:18:36.318Z,15.50
2018-05-01T06:21:02.981Z,15.50
2018-05-01T06:23:29.527Z,15.50
2018-05-01T06:25:56.260Z,15.50
2018-05-01T06:28:22.839Z,15.60
2018-05-01T06:30:50.257Z,15.60
2018-05-01T06:33:17.004Z,15.50
2018-05-01T06:35:44.254Z,15.60
2018-05-01T06:38:10.809Z,15.60
2018-05-01T06:40:52.315Z,15.60
2018-05-01T06:43:19.739Z,15.60
2018-05-01T06:45:46.278Z,15.60
2018-05-01T06:48:12.826Z,15.60
2018-05-01T06:50:42.299Z,15.60
2018-05-01T06:53:09.680Z,15.70
2018-05-01T06:55:36.328Z,15.60
2018-05-01T06:58:02.855Z,15.70
2018-05-01T07:00:29.700Z,15.70
2018-05-01T07:02:56.237Z,15.70
2018-05-01T07:05:22.876Z,15.70
2018-05-01T07:07:49.459Z,15.80
2018-05-01T07:10:17.065Z,15.80
2018-05-01T07:12:44.290Z,15.80
2018-05-01T07:15:10.848Z,15.80
2018-05-01T07:17:37.415Z,15.80
2018-05-01T07:20:04.161Z,15.90
2018-05-01T07:22:30.794Z,15.90
2018-05-01T07:24:57.850Z,15.90
2018-05-01T07:27:24.833Z,15.90
2018-05-01T07:29:52.282Z,16.00
2018-05-01T07:32:18.816Z,15.90
2018-05-01T07:34:46.200Z,16.00
2018-05-01T07:37:12.732Z,16.00
2018-05-01T07:39:40.962Z,16.00
2018-05-01T07:42:08.221Z,16.00
2018-05-01T07:44:34.760Z,16.00
2018-05-01T07:47:01.231Z,16.00
2018-05-01T07:49:28.480Z,16.10
2018-05-01T07:51:55.807Z,16.10
2018-05-01T07:54:22.315Z,16.10
2018-05-01T07:56:48.870Z,16.10
2018-05-01T07:59:15.471Z,16.10
2018-05-01T08:01:42.167Z,16.20
2018-05-01T08:04:10.737Z,16.20
2018-05-01T08:06:37.499Z,16.20
2018-05-01T08:09:04.095Z,16.20
2018-05-01T08:11:34.464Z,16.30
2018-05-01T08:14:01.050Z,16.30
2018-05-01T08:16:27.536Z,16.30
2018-05-01T08:18:53.992Z,16.40
2018-05-01T08:21:21.235Z,16.50
2018-05-01T08:23:47.773Z,16.50
2018-05-01T08:26:15.022Z,16.50
2018-05-01T08:28:41.561Z,16.50
2018-05-01T08:31:08.748Z,16.70
2018-05-01T08:33:39.142Z,16.60
2018-05-01T08:36:06.572Z,16.60
2018-05-01T08:38:33.170Z,16.60
2018-05-01T08:40:59.683Z,16.70
2018-05-01T08:43:26.213Z,16.70
2018-05-01T08:45:53.045Z,16.70
2018-05-01T08:48:19.970Z,16.70
2018-05-01T08:50:46.736Z,16.70
2018-05-01T08:53:13.469Z,16.70
2018-05-01T08:55:40.147Z,16.80
2018-05-01T08:58:07.680Z,16.70
2018-05-01T09:00:34.731Z,16.70
2018-05-01T09:03:01.257Z,16.70
2018-05-01T09:05:27.999Z,16.60
2018-05-01T09:07:54.578Z,16.60
2018-05-01T09:10:21.827Z,16.50
2018-05-01T09:12:49.249Z,16.50
2018-05-01T09:15:33.028Z,16.50
2018-05-01T09:18:00.558Z,16.50
2018-05-01T09:20:27.296Z,16.50
2018-05-01T09:22:53.832Z,16.50
2018-05-01T09:25:20.581Z,16.50
2018-05-01T09:27:47.317Z,16.40
2018-05-01T09:30:13.861Z,16.50
2018-05-01T09:32:40.361Z,16.50
2018-05-01T09:35:06.854Z,16.50
2018-05-01T09:37:33.507Z,16.50
2018-05-01T09:40:00.717Z,16.60
2018-05-01T09:42:27.250Z,16.60
2018-05-01T09:44:53.870Z,16.70
2018-05-01T09:47:20.371Z,16.70
2018-05-01T09:49:47.629Z,16.70
2018-05-01T09:52:15.331Z,16.70
2018-05-01T09:54:42.088Z,16.70
2018-05-01T09:57:08.880Z,16.80
2018-05-01T09:59:36.409Z,16.80
2018-05-01T10:02:03.189Z,16.80
2018-05-01T10:04:30.720Z,16.80
2018-05-01T10:06:57.596Z,16.80
2018-05-01T10:09:25.183Z,16.90
2018-05-01T10:11:51.995Z,16.80
2018-05-01T10:14:20.528Z,16.90
2018-05-01T10:16:47.327Z,16.80
2018-05-01T10:19:14.943Z,16.90
2018-05-01T10:21:41.791Z,16.80
2018-05-01T10:24:08.642Z,16.90
2018-05-01T10:26:35.580Z,16.90
2018-05-01T10:29:02.361Z,16.90
2018-05-01T10:31:30.089Z,16.90
2018-05-01T10:33:57.072Z,16.90
2018-05-01T10:36:24.599Z,16.80
2018-05-01T10:38:51.385Z,16.80
2018-05-01T10:41:18.950Z,16.80
2018-05-01T10:43:46.451Z,16.80
2018-05-01T10:46:13.278Z,16.80
2018-05-01T10:48:40.130Z,16.80
2018-05-01T10:51:07.002Z,16.90
2018-05-01T10:53:33.923Z,16.90
2018-05-01T10:56:00.858Z,16.90
2018-05-01T10:58:27.757Z,16.90
2018-05-01T11:00:54.717Z,16.90
2018-05-01T11:03:22.217Z,16.90
2018-05-01T11:05:49.092Z,16.90
2018-05-01T11:08:15.900Z,16.90
2018-05-01T11:10:44.116Z,16.90
2018-05-01T11:13:10.868Z,16.90
2018-05-01T11:16:01.110Z,16.90
2018-05-01T11:18:28.400Z,16.90
2018-05-01T11:20:55.248Z,16.90
2018-05-01T11:23:22.043Z,16.90
2018-05-01T11:25:49.603Z,16.90
2018-05-01T11:28:17.167Z,16.90
2018-05-01T11:30:44.309Z,17.00
2018-05-01T11:33:12.003Z,17.00
2018-05-01T11:35:38.759Z,17.00
2018-05-01T11:38:05.578Z,17.10
2018-05-01T11:40:32.621Z,17.10
2018-05-01T11:42:59.487Z,17.10
2018-05-01T11:45:26.419Z,17.10
2018-05-01T11:47:53.292Z,17.10
2018-05-01T11:50:20.798Z,17.10
2018-05-01T11:52:48.348Z,17.20
2018-05-01T11:55:15.891Z,17.20
2018-05-01T11:57:42.732Z,17.20
2018-05-01T12:00:09.599Z,17.20
2018-05-01T12:02:36.636Z,17.20
2018-05-01T12:05:03.462Z,17.20
2018-05-01T12:07:30.284Z,17.20
2018-05-01T12:09:57.199Z,17.30
2018-05-01T12:12:24.773Z,17.30
2018-05-01T12:15:13.461Z,17.30
2018-05-01T12:17:40.582Z,17.30
2018-05-01T12:20:08.108Z,17.30
2018-05-01T12:22:35.168Z,17.30
2018-05-01T12:25:03.016Z,17.30
2018-05-01T12:27:30.059Z,17.20
2018-05-01T12:29:56.925Z,17.30
2018-05-01T12:32:23.689Z,17.30
2018-05-01T12:34:51.518Z,17.30
2018-05-01T12:37:18.361Z,17.30
2018-05-01T12:39:45.185Z,17.30
2018-05-01T12:42:12.049Z,17.30
2018-05-01T12:44:38.998Z,17.30
2018-05-01T12:47:05.953Z,17.30
2018-05-01T12:49:32.792Z,17.30
2018-05-01T12:51:59.733Z,17.30
2018-05-01T12:54:26.591Z,17.20
2018-05-01T12:56:53.641Z,17.30
2018-05-01T12:59:20.682Z,17.20
2018-05-01T13:01:47.634Z,17.20
2018-05-01T13:04:14.678Z,17.30
2018-05-01T13:06:42.228Z,17.20
2018-05-01T13:09:09.027Z,17.20
2018-05-01T13:11:36.609Z,17.30
2018-05-01T13:14:03.392Z,17.20
2018-05-01T13:16:30.572Z,17.30
2018-05-01T13:18:58.098Z,17.30
2018-05-01T13:21:24.923Z,17.30
2018-05-01T13:23:51.696Z,17.30
2018-05-01T13:26:20.037Z,17.30
2018-05-01T13:28:46.880Z,17.30
2018-05-01T13:31:13.709Z,17.30
2018-05-01T13:36:13.797Z,17.30
2018-05-01T13:38:40.616Z,17.30
2018-05-01T13:41:10.501Z,17.30
2018-05-01T13:43:38.018Z,17.30
2018-05-01T13:46:05.157Z,17.30
2018-05-01T13:48:32.039Z,17.30
2018-05-01T13:50:58.950Z,17.30
2018-05-01T13:53:25.811Z,17.30
2018-05-01T13:55:52.639Z,17.40
2018-05-01T13:58:19.563Z,17.40
2018-05-01T14:00:46.423Z,17.40
2018-05-01T14:03:13.305Z,17.40
2018-05-01T14:05:40.143Z,17.30
2018-05-01T14:08:06.995Z,17.30
2018-05-01T14:10:34.019Z,17.30
2018-05-01T14:13:00.860Z,17.30
2018-05-01T14:16:00.949Z,17.30
2018-05-01T14:18:27.822Z,17.20
2018-05-01T14:20:54.772Z,17.20
2018-05-01T14:23:21.620Z,17.20
2018-05-01T14:25:48.639Z,17.20
2018-05-01T14:28:15.424Z,17.20
2018-05-01T14:30:44.412Z,17.30
2018-05-01T14:33:11.302Z,17.20
2018-05-01T14:35:38.871Z,17.20
2018-05-01T14:38:06.476Z,17.20
2018-05-01T14:40:34.071Z,17.20
2018-05-01T14:43:00.875Z,17.20
2018-05-01T14:45:27.662Z,17.20
2018-05-01T14:47:54.508Z,17.20
2018-05-01T14:50:21.341Z,17.10
2018-05-01T14:52:48.235Z,17.10
2018-05-01T14:55:15.151Z,17.20
2018-05-01T14:57:42.803Z,17.10
2018-05-01T15:00:09.627Z,17.10
2018-05-01T15:02:36.529Z,17.10
2018-05-01T15:05:04.087Z,17.10
2018-05-01T15:07:30.980Z,17.10
2018-05-01T15:09:57.782Z,17.10
2018-05-01T15:12:24.638Z,17.10
2018-05-01T15:15:12.504Z,17.10
2018-05-01T15:17:39.432Z,17.10
2018-05-01T15:20:06.358Z,17.00
2018-05-01T15:22:33.212Z,17.00
2018-05-01T15:25:00.070Z,17.00
2018-05-01T15:27:26.815Z,17.00
2018-05-01T15:29:53.649Z,17.00
2018-05-01T15:32:20.384Z,17.10
2018-05-01T15:34:47.248Z,17.10
2018-05-01T15:37:14.069Z,17.00
2018-05-01T15:39:40.916Z,17.00
2018-05-01T15:42:07.816Z,17.00
2018-05-01T15:44:34.691Z,17.00
2018-05-01T15:47:02.248Z,17.00
2018-05-01T15:49:29.878Z,16.90
2018-05-01T15:51:56.722Z,17.00
2018-05-01T15:54:23.552Z,17.00
2018-05-01T15:56:50.424Z,16.90
2018-05-01T15:59:17.207Z,16.90
2018-05-01T16:01:44.046Z,16.90
2018-05-01T16:04:10.909Z,16.90
2018-05-01T16:06:37.899Z,16.90
2018-05-01T16:09:04.779Z,16.90
2018-05-01T16:11:33.998Z,16.90
2018-05-01T16:14:00.945Z,16.90
2018-05-01T16:17:05.012Z,16.80
2018-05-01T16:19:31.949Z,16.80
2018-05-01T16:21:58.795Z,16.80
2018-05-01T16:24:25.744Z,16.80
2018-05-01T16:26:52.509Z,16.80
2018-05-01T16:29:19.442Z,16.80
2018-05-01T16:31:46.246Z,16.80
2018-05-01T16:34:13.219Z,16.80
2018-05-01T16:36:40.169Z,16.70
2018-05-01T16:39:07.842Z,16.70
2018-05-01T16:41:34.778Z,16.70
2018-05-01T16:44:01.839Z,16.70
2018-05-01T16:46:28.778Z,16.70
2018-05-01T16:48:55.839Z,16.70
2018-05-01T16:51:22.747Z,16.70
2018-05-01T16:53:49.729Z,16.60
2018-05-01T16:56:16.632Z,16.60
2018-05-01T16:58:43.431Z,16.60
2018-05-01T17:01:10.356Z,16.60
2018-05-01T17:03:44.583Z,16.60
2018-05-01T17:06:11.442Z,16.60
2018-05-01T17:08:38.263Z,16.60
2018-05-01T17:11:05.092Z,16.60
2018-05-01T17:13:31.889Z,16.50
2018-05-01T17:19:02.796Z,16.50
2018-05-01T17:21:30.602Z,16.50
2018-05-01T17:23:57.634Z,16.50
2018-05-01T17:26:24.492Z,16.50
2018-05-01T17:28:51.563Z,16.50
2018-05-01T17:31:19.302Z,16.40
2018-05-01T17:33:46.250Z,16.50
2018-05-01T17:36:13.236Z,16.40
2018-05-01T17:38:40.137Z,16.40
2018-05-01T17:41:07.017Z,16.40
2018-05-01T17:43:34.535Z,16.30
2018-05-01T17:46:01.418Z,16.30
2018-05-01T17:48:28.954Z,16.30
2018-05-01T17:50:55.773Z,16.30
2018-05-01T17:53:22.583Z,16.30
2018-05-01T17:55:50.085Z,16.30
2018-05-01T17:58:16.903Z,16.20
2018-05-01T18:00:45.194Z,16.20
2018-05-01T18:03:11.988Z,16.20
2018-05-01T18:05:39.600Z,16.20
2018-05-01T18:08:06.998Z,16.10
2018-05-01T18:10:34.748Z,16.10
2018-05-01T18:13:01.579Z,16.10
2018-05-01T18:16:00.034Z,16.10
2018-05-01T18:18:26.921Z,16.10
2018-05-01T18:20:53.779Z,16.10
2018-05-01T18:23:20.727Z,16.10
2018-05-01T18:25:55.868Z,16.10
2018-05-01T18:28:22.906Z,16.00
2018-05-01T18:30:49.865Z,16.00
2018-05-01T18:33:16.729Z,16.00
2018-05-01T18:35:45.383Z,16.00
2018-05-01T18:38:12.439Z,16.00
2018-05-01T18:40:39.381Z,16.00
2018-05-01T18:43:07.044Z,16.00
2018-05-01T18:45:33.932Z,16.00
2018-05-01T18:48:00.839Z,16.00
2018-05-01T18:50:30.187Z,16.00
2018-05-01T18:52:55.884Z,16.00
2018-05-01T18:55:23.525Z,16.00
2018-05-01T18:57:50.516Z,16.00
2018-05-01T19:00:17.500Z,16.00
2018-05-01T19:02:44.481Z,16.00
2018-05-01T19:05:11.519Z,16.00
2018-05-01T19:07:38.478Z,15.90
2018-05-01T19:10:06.640Z,15.90
2018-05-01T19:12:33.599Z,15.90
2018-05-01T19:15:28.023Z,15.90
2018-05-01T19:18:01.846Z,15.80
2018-05-01T19:20:28.844Z,15.80
2018-05-01T19:22:55.785Z,15.90
2018-05-01T19:25:22.843Z,15.80
2018-05-01T19:28:04.647Z,15.90
2018-05-01T19:30:31.822Z,15.80
2018-05-01T19:32:59.548Z,15.80
2018-05-01T19:35:26.492Z,15.80
2018-05-01T19:37:53.441Z,15.80
2018-05-01T19:40:20.386Z,15.80
2018-05-01T19:42:47.336Z,15.80
2018-05-01T19:45:14.284Z,15.80
2018-05-01T19:47:41.135Z,15.80
2018-05-01T19:50:08.185Z,15.80
2018-05-01T19:52:35.126Z,15.80
2018-05-01T19:55:01.974Z,15.70
2018-05-01T19:57:28.709Z,15.70
2018-05-01T19:59:55.656Z,15.70
2018-05-01T20:02:22.706Z,15.70
2018-05-01T20:04:50.021Z,15.70
2018-05-01T20:07:17.764Z,15.70
2018-05-01T20:09:45.391Z,15.70
2018-05-01T20:12:12.298Z,15.70
2018-05-01T20:14:55.834Z,15.70
2018-05-01T20:17:48.732Z,15.60
2018-05-01T20:20:15.580Z,15.60
2018-05-01T20:22:42.522Z,15.60
2018-05-01T20:25:09.369Z,15.60
2018-05-01T20:30:48.375Z,15.60
2018-05-01T20:33:15.168Z,15.60
2018-05-01T20:35:42.012Z,15.60
2018-05-01T20:38:08.958Z,15.60
2018-05-01T20:40:36.007Z,15.60
2018-05-01T20:43:02.849Z,15.60
2018-05-01T20:45:29.899Z,15.60
2018-05-01T20:47:56.848Z,15.60
2018-05-01T20:50:23.804Z,15.60
2018-05-01T20:52:50.751Z,15.60
2018-05-01T20:55:17.697Z,15.60
2018-05-01T20:57:44.640Z,15.50
2018-05-01T21:00:11.479Z,15.50
2018-05-01T21:02:38.438Z,15.50
2018-05-01T21:05:05.479Z,15.50
2018-05-01T21:07:32.332Z,15.50
2018-05-01T21:09:59.380Z,15.50
2018-05-01T21:12:26.533Z,15.50
2018-05-01T21:15:29.782Z,15.50
2018-05-01T21:17:56.541Z,15.50
2018-05-01T21:20:23.396Z,15.50
2018-05-01T21:22:50.162Z,15.50
2018-05-01T21:25:17.201Z,15.40
2018-05-01T21:27:44.021Z,15.40
2018-05-01T21:30:10.902Z,15.40
2018-05-01T21:32:37.837Z,15.50
2018-05-01T21:35:04.796Z,15.50
2018-05-01T21:37:32.972Z,15.50
2018-05-01T21:39:59.912Z,15.40
2018-05-01T21:42:27.072Z,15.40
2018-05-01T21:44:54.121Z,15.40
2018-05-01T21:47:21.061Z,15.40
2018-05-01T21:49:48.117Z,15.40
2018-05-01T21:52:15.238Z,15.40
2018-05-01T21:54:42.211Z,15.40
2018-05-01T21:57:09.286Z,15.40
2018-05-01T21:59:36.934Z,15.40
2018-05-01T22:02:03.904Z,15.40
2018-05-01T22:04:31.634Z,15.40
2018-05-01T22:06:58.789Z,15.40
2018-05-01T22:09:25.846Z,15.40
2018-05-01T22:11:52.895Z,15.40
2018-05-01T22:14:19.831Z,15.40
2018-05-01T22:16:46.885Z,15.40
2018-05-01T22:19:13.733Z,15.40
2018-05-01T22:21:40.572Z,15.40
2018-05-01T22:24:07.418Z,15.30
2018-05-01T22:26:34.270Z,15.30
2018-05-01T22:29:01.151Z,15.30
2018-05-01T22:31:28.780Z,15.30
2018-05-01T22:33:55.692Z,15.30
2018-05-01T22:36:22.522Z,15.40
2018-05-01T22:38:49.518Z,15.30
2018-05-01T22:41:16.315Z,15.30
2018-05-01T22:43:43.096Z,15.30
2018-05-01T22:46:11.186Z,15.30
2018-05-01T22:48:39.633Z,15.20
2018-05-01T22:51:06.444Z,15.20
2018-05-01T22:53:34.170Z,15.20
2018-05-01T22:56:01.115Z,15.20
2018-05-01T22:58:27.853Z,15.20
2018-05-01T23:00:54.800Z,15.20
2018-05-01T23:03:21.750Z,15.20
2018-05-01T23:05:48.702Z,15.20
2018-05-01T23:08:15.743Z,15.20
2018-05-01T23:10:42.608Z,15.20
2018-05-01T23:13:09.646Z,15.20
2018-05-01T23:15:36.415Z,15.20
2018-05-01T23:18:04.158Z,15.20
2018-05-01T23:20:31.194Z,15.20
2018-05-01T23:22:58.042Z,15.20
2018-05-01T23:25:24.995Z,15.20
2018-05-01T23:27:52.689Z,15.20
2018-05-01T23:30:19.704Z,15.20
2018-05-01T23:32:46.653Z,15.20
2018-05-01T23:35:13.594Z,15.20
2018-05-01T23:37:40.544Z,15.20
2018-05-01T23:40:07.385Z,15.20
2018-05-01T23:42:34.343Z,15.20
2018-05-01T23:45:01.182Z,15.20
2018-05-01T23:47:28.126Z,15.20
2018-05-01T23:49:55.178Z,15.20
2018-05-01T23:52:22.024Z,15.20
2018-05-01T23:54:48.969Z,15.10
2018-05-01T23:57:15.937Z,15.10
2018-05-01T23:59:42.975Z,15.20
